createdAt,value
2023-04-19T00:02:04.962Z,4.13
2023-04-19T00:04:34.099Z,3.33
2023-04-19T00:07:04.306Z,3.47
2023-04-19T00:09:32.764Z,3.53
2023-04-19T00:12:03.271Z,3.53
2023-04-19T00:14:32.172Z,3.30
2023-04-19T00:17:01.002Z,2.80
2023-04-19T00:19:29.766Z,3.70
2023-04-19T00:21:58.193Z,3.20
2023-04-19T00:24:26.710Z,3.40
2023-04-19T00:26:55.501Z,3.45
2023-04-19T00:29:25.754Z,3.30
2023-04-19T00:31:54.249Z,2.88
2023-04-19T00:34:23.094Z,3.00
2023-04-19T00:36:51.516Z,3.10
2023-04-19T00:39:20.150Z,2.97
2023-04-19T00:41:48.553Z,3.10
2023-04-19T00:44:17.553Z,2.97
2023-04-19T00:46:47.888Z,3.58
2023-04-19T00:49:19.109Z,3.08
2023-04-19T00:51:48.967Z,3.67
2023-04-19T00:54:18.210Z,2.88
2023-04-19T00:56:48.011Z,3.50
2023-04-19T00:59:20.127Z,2.95
2023-04-19T01:01:50.157Z,3.60
2023-04-19T01:04:20.149Z,3.38
2023-04-19T01:06:49.128Z,3.58
2023-04-19T01:09:18.676Z,3.70
2023-04-19T01:11:47.418Z,3.50
2023-04-19T01:14:16.923Z,3.20
2023-04-19T01:16:50.813Z,3.50
2023-04-19T01:19:19.226Z,3.38
2023-04-19T01:21:47.754Z,3.35
2023-04-19T01:24:17.751Z,3.35
2023-04-19T01:26:46.855Z,3.63
2023-04-19T01:29:15.900Z,3.58
2023-04-19T01:31:51.468Z,3.03
2023-04-19T01:34:20.114Z,3.63
2023-04-19T01:36:48.978Z,3.42
2023-04-19T01:39:18.993Z,3.53
2023-04-19T01:41:47.565Z,3.38
2023-04-19T01:44:16.554Z,3.33
2023-04-19T01:46:46.257Z,3.40
2023-04-19T01:49:15.187Z,3.50
2023-04-19T01:51:44.412Z,3.45
2023-04-19T01:54:12.970Z,3.83
2023-04-19T01:56:43.041Z,3.70
2023-04-19T01:59:11.810Z,3.78
2023-04-19T02:01:40.975Z,3.65
2023-04-19T02:04:09.662Z,3.50
2023-04-19T02:06:38.241Z,3.65
2023-04-19T02:09:06.851Z,3.67
2023-04-19T02:11:35.314Z,3.88
2023-04-19T02:14:06.001Z,3.97
2023-04-19T02:16:36.085Z,3.83
2023-04-19T02:19:05.565Z,3.88
2023-04-19T02:21:34.955Z,3.40
2023-04-19T02:24:03.406Z,3.55
2023-04-19T02:26:33.023Z,4.20
2023-04-19T02:29:01.684Z,3.90
2023-04-19T02:31:31.395Z,3.60
2023-04-19T02:33:59.871Z,4.05
2023-04-19T02:36:28.583Z,3.97
2023-04-19T02:38:59.440Z,3.53
2023-04-19T02:41:28.289Z,3.57
2023-04-19T02:43:56.790Z,3.70
2023-04-19T02:46:25.385Z,3.45
2023-04-19T02:48:55.238Z,3.50
2023-04-19T02:51:24.384Z,3.42
2023-04-19T02:53:52.860Z,3.22
2023-04-19T02:56:21.883Z,3.13
2023-04-19T02:58:50.889Z,3.33
2023-04-19T03:01:19.448Z,3.40
2023-04-19T03:03:48.288Z,3.38
2023-04-19T03:06:18.439Z,2.95
2023-04-19T03:08:47.162Z,3.33
2023-04-19T03:11:19.455Z,3.20
2023-04-19T03:13:48.984Z,3.20
2023-04-19T03:16:17.696Z,3.38
2023-04-19T03:18:48.017Z,4.43
2023-04-19T03:21:21.523Z,4.28
2023-04-19T03:23:55.508Z,4.03
2023-04-19T03:26:25.727Z,4.60
2023-04-19T03:28:56.182Z,3.95
2023-04-19T03:31:41.159Z,4.20
2023-04-19T03:34:13.429Z,3.90
2023-04-19T03:36:47.822Z,5.22
2023-04-19T03:39:16.378Z,4.03
2023-04-19T03:41:48.385Z,4.80
2023-04-19T03:44:43.106Z,4.10
2023-04-19T03:47:12.912Z,4.10
2023-04-19T03:49:46.027Z,3.70
2023-04-19T03:52:16.233Z,3.28
2023-04-19T03:54:45.310Z,3.72
2023-04-19T03:57:27.025Z,3.80
2023-04-19T03:59:56.757Z,4.00
2023-04-19T04:02:25.499Z,4.20
2023-04-19T04:04:55.987Z,5.57
2023-04-19T04:07:27.575Z,5.88
2023-04-19T04:09:56.745Z,8.38
2023-04-19T04:12:25.534Z,11.32
2023-04-19T04:14:56.962Z,5.18
2023-04-19T04:17:26.329Z,5.32
2023-04-19T04:19:56.804Z,4.80
2023-04-19T04:22:29.990Z,4.95
2023-04-19T04:24:59.439Z,3.85
2023-04-19T04:27:33.528Z,3.70
2023-04-19T04:30:03.250Z,4.28
2023-04-19T04:32:36.054Z,3.20
2023-04-19T04:35:08.225Z,2.90
2023-04-19T04:37:55.262Z,3.72
2023-04-19T04:40:24.187Z,2.42
2023-04-19T04:42:54.304Z,2.25
2023-04-19T04:45:24.866Z,2.00
2023-04-19T04:47:53.675Z,1.90
2023-04-19T04:50:23.998Z,1.85
2023-04-19T04:52:54.817Z,1.83
2023-04-19T04:55:28.334Z,1.48
2023-04-19T04:57:56.949Z,1.73
2023-04-19T05:00:45.523Z,1.30
2023-04-19T05:03:15.252Z,1.67
2023-04-19T05:05:49.862Z,1.75
2023-04-19T05:08:20.595Z,1.33
2023-04-19T05:10:50.055Z,1.40
2023-04-19T05:13:19.973Z,1.55
2023-04-19T05:15:48.924Z,1.70
2023-04-19T05:18:17.365Z,1.30
2023-04-19T05:20:47.000Z,1.73
2023-04-19T05:23:22.992Z,1.50
2023-04-19T05:25:52.895Z,2.17
2023-04-19T05:28:23.927Z,1.60
2023-04-19T05:31:04.065Z,2.22
2023-04-19T05:33:37.098Z,1.95
2023-04-19T05:36:06.858Z,1.80
2023-04-19T05:38:37.548Z,2.08
2023-04-19T05:41:09.290Z,2.15
2023-04-19T05:43:39.456Z,2.10
2023-04-19T05:46:10.501Z,2.28
2023-04-19T05:48:39.654Z,2.03
2023-04-19T05:51:31.995Z,1.67
2023-04-19T05:54:22.921Z,1.60
2023-04-19T05:59:21.231Z,1.67
2023-04-19T06:01:50.101Z,1.50
2023-04-19T06:04:19.258Z,1.30
2023-04-19T06:06:48.621Z,1.60
2023-04-19T06:09:18.392Z,1.73
2023-04-19T06:11:51.544Z,1.35
2023-04-19T06:14:20.892Z,2.25
2023-04-19T06:16:49.509Z,1.60
2023-04-19T06:19:18.180Z,1.77
2023-04-19T06:21:47.866Z,2.00
2023-04-19T06:24:17.102Z,2.20
2023-04-19T06:26:45.559Z,1.95
2023-04-19T06:29:16.699Z,2.13
2023-04-19T06:31:46.580Z,2.15
2023-04-19T06:34:16.190Z,2.38
2023-04-19T06:36:45.862Z,2.45
2023-04-19T06:39:15.759Z,2.35
2023-04-19T06:41:45.373Z,2.35
2023-04-19T06:44:19.897Z,2.75
2023-04-19T06:46:49.224Z,2.80
2023-04-19T06:49:17.742Z,2.70
2023-04-19T06:51:47.095Z,3.10
2023-04-19T06:54:16.170Z,2.72
2023-04-19T06:56:47.020Z,2.85
2023-04-19T06:59:17.368Z,3.15
2023-04-19T07:01:49.158Z,3.20
2023-04-19T07:04:21.224Z,3.15
2023-04-19T07:06:50.938Z,3.40
2023-04-19T07:09:19.439Z,3.97
2023-04-19T07:11:48.721Z,4.82
2023-04-19T07:14:17.377Z,4.30
2023-04-19T07:16:47.043Z,4.30
2023-04-19T07:19:19.353Z,3.90
2023-04-19T07:21:48.060Z,4.43
2023-04-19T07:24:17.515Z,4.20
2023-04-19T07:26:46.392Z,4.40
2023-04-19T07:29:16.378Z,4.53
2023-04-19T07:31:47.597Z,4.28
2023-04-19T07:34:18.175Z,4.53
2023-04-19T07:36:47.205Z,4.47
2023-04-19T07:39:16.030Z,4.60
2023-04-19T07:41:44.622Z,5.00
2023-04-19T07:44:14.439Z,4.40
2023-04-19T07:46:44.513Z,4.47
2023-04-19T07:49:13.321Z,5.13
2023-04-19T07:51:43.699Z,5.28
2023-04-19T07:54:13.011Z,5.28
2023-04-19T07:56:41.905Z,5.03
2023-04-19T07:59:10.811Z,5.18
2023-04-19T08:01:39.545Z,5.68
2023-04-19T08:04:09.089Z,6.45
2023-04-19T08:06:40.018Z,5.85
2023-04-19T08:09:11.797Z,5.20
2023-04-19T08:11:40.292Z,5.15
2023-04-19T08:14:28.337Z,5.18
2023-04-19T08:17:22.219Z,4.90
2023-04-19T08:19:46.551Z,4.78
2023-04-19T08:22:15.256Z,5.60
2023-04-19T08:24:45.695Z,5.22
2023-04-19T08:27:14.427Z,5.65
2023-04-19T08:29:44.316Z,5.50
2023-04-19T08:32:14.069Z,5.32
2023-04-19T08:34:42.876Z,5.65
2023-04-19T08:37:11.552Z,5.75
2023-04-19T08:39:40.973Z,6.50
2023-04-19T08:42:24.777Z,5.93
2023-04-19T08:47:51.802Z,5.80
2023-04-19T08:50:33.456Z,5.70
2023-04-19T08:53:23.090Z,6.28
2023-04-19T08:56:12.662Z,6.70
2023-04-19T09:01:33.932Z,5.97
2023-04-19T09:04:26.408Z,6.60
2023-04-19T09:06:55.128Z,6.07
2023-04-19T09:12:00.467Z,5.95
2023-04-19T09:14:30.923Z,6.43
2023-04-19T09:17:15.866Z,6.65
2023-04-19T09:19:48.924Z,6.43
2023-04-19T09:22:18.183Z,6.05
2023-04-19T09:25:22.713Z,6.05
2023-04-19T09:27:38.354Z,5.68
2023-04-19T09:30:17.651Z,6.32
2023-04-19T09:32:50.508Z,6.50
2023-04-19T09:35:19.964Z,6.50
2023-04-19T09:40:32.107Z,5.90
2023-04-19T09:43:12.922Z,6.13
2023-04-19T09:45:48.342Z,6.13
2023-04-19T09:48:17.172Z,5.97
2023-04-19T09:51:00.696Z,5.53
2023-04-19T09:53:34.756Z,7.45
2023-04-19T09:56:06.387Z,6.65
2023-04-19T09:58:47.011Z,5.78
2023-04-19T10:01:22.346Z,6.15
2023-04-19T10:03:52.752Z,5.47
2023-04-19T10:08:56.479Z,4.70
2023-04-19T10:11:30.628Z,5.00
2023-04-19T10:14:02.690Z,5.07
2023-04-19T10:16:34.174Z,5.68
2023-04-19T10:19:06.413Z,4.75
2023-04-19T10:21:37.165Z,5.15
2023-04-19T10:24:07.378Z,5.15
2023-04-19T10:27:08.498Z,5.00
2023-04-19T10:29:56.042Z,4.80
2023-04-19T10:32:29.121Z,5.10
2023-04-19T10:35:03.970Z,5.63
2023-04-19T10:37:33.945Z,5.57
2023-04-19T10:40:02.768Z,5.28
2023-04-19T10:43:04.952Z,5.28
2023-04-19T10:48:05.219Z,4.88
2023-04-19T10:51:02.671Z,5.70
2023-04-19T10:53:48.264Z,4.97
2023-04-19T10:56:18.752Z,5.05
2023-04-19T10:59:24.380Z,5.18
2023-04-19T11:01:55.783Z,5.80
2023-04-19T11:05:02.450Z,5.30
2023-04-19T11:07:39.251Z,5.15
2023-04-19T11:10:09.652Z,5.72
2023-04-19T11:12:38.762Z,6.07
2023-04-19T11:15:10.795Z,5.82
2023-04-19T11:17:39.789Z,6.35
2023-04-19T11:20:12.221Z,6.10
2023-04-19T11:22:42.706Z,6.70
2023-04-19T11:25:13.992Z,6.47
2023-04-19T11:30:15.158Z,5.38
2023-04-19T11:32:48.471Z,5.20
2023-04-19T11:35:23.380Z,5.47
2023-04-19T11:37:53.202Z,5.47
2023-04-19T11:40:23.717Z,5.15
2023-04-19T11:42:56.412Z,5.65
2023-04-19T11:45:32.204Z,4.57
2023-04-19T11:48:04.396Z,4.80
2023-04-19T11:50:36.997Z,6.07
2023-04-19T11:53:13.939Z,6.68
2023-04-19T11:55:47.353Z,5.95
2023-04-19T11:58:28.775Z,5.20
2023-04-19T12:00:58.529Z,4.97
2023-04-19T12:03:27.717Z,4.63
2023-04-19T12:05:59.833Z,4.25
2023-04-19T12:08:33.190Z,4.28
2023-04-19T12:11:03.658Z,4.70
2023-04-19T12:13:33.700Z,6.22
2023-04-19T12:16:03.507Z,5.47
2023-04-19T12:18:45.417Z,5.15
2023-04-19T12:21:27.340Z,4.72
2023-04-19T12:23:58.039Z,4.53
2023-04-19T12:26:28.418Z,4.60
2023-04-19T12:28:57.444Z,4.22
2023-04-19T12:31:27.258Z,4.32
2023-04-19T12:33:56.265Z,4.45
2023-04-19T12:36:26.865Z,4.10
2023-04-19T12:38:55.963Z,4.18
2023-04-19T12:41:24.821Z,4.22
2023-04-19T12:43:53.588Z,3.92
2023-04-19T12:46:23.048Z,4.28
2023-04-19T12:48:52.204Z,4.22
2023-04-19T12:51:22.118Z,3.67
2023-04-19T12:53:53.847Z,3.88
2023-04-19T12:58:51.341Z,3.60
2023-04-19T13:01:20.356Z,4.03
2023-04-19T13:03:49.399Z,4.35
2023-04-19T13:06:18.864Z,4.10
2023-04-19T13:08:49.702Z,3.88
2023-04-19T13:11:23.599Z,3.97
2023-04-19T13:13:54.255Z,4.75
2023-04-19T13:16:23.530Z,4.20
2023-04-19T13:18:54.863Z,4.15
2023-04-19T13:21:24.342Z,4.18
2023-04-19T13:23:53.387Z,5.22
2023-04-19T13:26:24.092Z,4.68
2023-04-19T13:28:52.916Z,4.55
2023-04-19T13:31:22.489Z,4.60
2023-04-19T13:33:51.764Z,5.15
2023-04-19T13:36:20.704Z,4.68
2023-04-19T13:38:50.074Z,4.82
2023-04-19T13:41:19.703Z,4.43
2023-04-19T13:43:50.235Z,4.63
2023-04-19T13:46:19.075Z,5.00
2023-04-19T13:48:48.117Z,4.93
2023-04-19T13:51:17.015Z,4.53
2023-04-19T13:53:45.962Z,4.72
2023-04-19T13:56:15.358Z,5.25
2023-04-19T13:58:44.297Z,4.97
2023-04-19T14:01:14.856Z,4.80
2023-04-19T14:03:47.404Z,4.68
2023-04-19T14:06:17.480Z,5.13
2023-04-19T14:08:47.278Z,5.63
2023-04-19T14:11:18.091Z,5.57
2023-04-19T14:13:48.546Z,4.95
2023-04-19T14:16:18.937Z,5.32
2023-04-19T14:18:48.145Z,4.82
2023-04-19T14:21:16.871Z,4.70
2023-04-19T14:23:46.104Z,4.70
2023-04-19T14:26:16.291Z,5.00
2023-04-19T14:28:45.010Z,4.93
2023-04-19T14:31:14.179Z,4.35
2023-04-19T14:33:44.344Z,4.43
2023-04-19T14:36:13.606Z,4.70
2023-04-19T14:38:42.787Z,4.63
2023-04-19T14:41:12.260Z,4.53
2023-04-19T14:43:41.837Z,4.10
2023-04-19T14:46:11.712Z,4.68
2023-04-19T14:48:41.069Z,4.50
2023-04-19T14:51:11.295Z,4.65
2023-04-19T14:53:40.313Z,4.90
2023-04-19T14:56:10.129Z,4.50
2023-04-19T14:58:39.116Z,4.25
2023-04-19T15:01:15.011Z,3.95
2023-04-19T15:03:44.545Z,4.28
2023-04-19T15:06:16.384Z,4.15
2023-04-19T15:08:45.640Z,4.07
2023-04-19T15:11:16.600Z,4.97
2023-04-19T15:13:47.398Z,13.85
2023-04-19T15:16:17.385Z,13.13
2023-04-19T15:18:46.202Z,10.73
2023-04-19T15:21:21.242Z,5.15
2023-04-19T15:23:51.744Z,4.13
2023-04-19T15:26:21.686Z,3.45
2023-04-19T15:28:50.410Z,3.42
2023-04-19T15:31:20.015Z,3.00
2023-04-19T15:33:48.996Z,3.17
2023-04-19T15:36:19.571Z,2.80
2023-04-19T15:38:48.430Z,2.85
2023-04-19T15:41:18.954Z,4.65
2023-04-19T15:43:49.258Z,3.70
2023-04-19T15:46:18.221Z,2.33
2023-04-19T15:48:48.916Z,2.85
2023-04-19T15:51:19.216Z,2.38
2023-04-19T15:53:48.329Z,2.45
2023-04-19T15:56:17.226Z,2.20
2023-04-19T15:58:46.690Z,2.47
2023-04-19T16:01:18.373Z,2.38
2023-04-19T16:06:18.404Z,2.42
2023-04-19T16:08:48.053Z,3.15
2023-04-19T16:11:17.253Z,3.40
2023-04-19T16:13:46.133Z,2.72
2023-04-19T16:16:15.543Z,2.78
2023-04-19T16:18:45.224Z,3.58
2023-04-19T16:21:14.120Z,4.25
2023-04-19T16:23:44.110Z,4.25
2023-04-19T16:26:12.788Z,3.50
2023-04-19T16:28:41.918Z,3.20
2023-04-19T16:31:10.820Z,3.22
2023-04-19T16:33:39.804Z,3.45
2023-04-19T16:36:08.530Z,3.05
2023-04-19T16:38:37.471Z,2.85
2023-04-19T16:41:07.930Z,2.95
2023-04-19T16:43:37.119Z,2.85
2023-04-19T16:46:07.421Z,2.90
2023-04-19T16:48:36.477Z,2.90
2023-04-19T16:51:05.617Z,3.13
2023-04-19T16:53:34.377Z,3.35
2023-04-19T16:56:03.926Z,3.28
2023-04-19T16:58:34.692Z,3.95
2023-04-19T17:01:03.930Z,3.90
2023-04-19T17:03:33.073Z,3.90
2023-04-19T17:06:03.772Z,4.10
2023-04-19T17:08:32.797Z,4.20
2023-04-19T17:11:01.689Z,3.60
2023-04-19T17:13:31.087Z,3.78
2023-04-19T17:16:01.719Z,3.80
2023-04-19T17:18:30.580Z,3.55
2023-04-19T17:20:59.254Z,3.85
2023-04-19T17:23:29.596Z,3.75
2023-04-19T17:26:03.996Z,3.53
2023-04-19T17:28:32.631Z,3.28
2023-04-19T17:31:03.135Z,3.03
2023-04-19T17:33:32.320Z,3.30
2023-04-19T17:36:01.838Z,3.40
2023-04-19T17:38:30.922Z,3.15
2023-04-19T17:41:03.010Z,3.28
2023-04-19T17:43:31.814Z,3.53
2023-04-19T17:46:00.678Z,3.22
2023-04-19T17:48:30.842Z,2.95
2023-04-19T17:50:59.764Z,3.20
2023-04-19T17:53:28.416Z,3.78
2023-04-19T17:55:57.453Z,3.15
2023-04-19T17:58:26.521Z,3.50
2023-04-19T18:00:55.413Z,2.90
2023-04-19T18:03:24.342Z,3.40
2023-04-19T18:05:54.498Z,3.40
2023-04-19T18:08:23.218Z,3.80
2023-04-19T18:10:52.878Z,3.38
2023-04-19T18:13:25.099Z,3.28
2023-04-19T18:15:53.883Z,3.90
2023-04-19T18:18:23.569Z,3.45
2023-04-19T18:20:53.852Z,4.07
2023-04-19T18:23:24.846Z,3.58
2023-04-19T18:25:57.238Z,3.80
2023-04-19T18:28:26.152Z,4.03
2023-04-19T18:30:55.366Z,4.50
2023-04-19T18:33:24.243Z,5.65
2023-04-19T18:35:54.782Z,5.93
2023-04-19T18:38:23.952Z,6.68
2023-04-19T18:40:52.867Z,6.63
2023-04-19T18:43:22.155Z,6.13
2023-04-19T18:45:56.153Z,5.82
2023-04-19T18:48:28.122Z,5.45
2023-04-19T18:50:59.769Z,5.40
2023-04-19T18:53:30.982Z,4.35
2023-04-19T18:55:59.893Z,4.20
2023-04-19T18:58:29.544Z,4.30
2023-04-19T19:00:59.499Z,5.45
2023-04-19T19:03:58.077Z,4.35
2023-04-19T19:06:18.653Z,3.63
2023-04-19T19:08:50.296Z,4.13
2023-04-19T19:11:47.099Z,4.03
2023-04-19T19:14:08.260Z,4.50
2023-04-19T19:16:50.665Z,4.45
2023-04-19T19:19:22.923Z,4.35
2023-04-19T19:21:53.600Z,4.40
2023-04-19T19:24:22.495Z,4.35
2023-04-19T19:26:53.634Z,3.92
2023-04-19T19:29:22.657Z,3.92
2023-04-19T19:31:51.961Z,4.35
2023-04-19T19:34:25.792Z,3.92
2023-04-19T19:36:59.427Z,4.85
2023-04-19T19:39:28.190Z,5.15
2023-04-19T19:42:05.721Z,4.97
2023-04-19T19:44:39.137Z,4.22
2023-04-19T19:47:12.798Z,4.00
2023-04-19T19:50:05.429Z,4.97
2023-04-19T19:52:37.963Z,4.03
2023-04-19T20:00:36.327Z,4.90
2023-04-19T20:05:36.734Z,4.88
2023-04-19T20:08:10.645Z,5.20
2023-04-19T20:10:44.273Z,5.15
2023-04-19T20:13:18.593Z,4.60
2023-04-19T20:15:49.847Z,4.78
2023-04-19T20:18:18.982Z,4.47
2023-04-19T20:20:47.849Z,4.90
2023-04-19T20:23:18.356Z,5.40
2023-04-19T20:25:47.669Z,6.28
2023-04-19T20:28:16.314Z,6.68
2023-04-19T20:30:45.287Z,6.10
2023-04-19T20:33:15.993Z,5.75
2023-04-19T20:35:45.532Z,5.80
2023-04-19T20:38:24.047Z,5.80
2023-04-19T20:40:53.034Z,5.85
2023-04-19T20:43:22.202Z,5.60
2023-04-19T20:45:51.660Z,5.90
2023-04-19T20:48:20.623Z,6.13
2023-04-19T20:50:51.192Z,5.93
2023-04-19T20:53:23.967Z,6.28
2023-04-19T20:55:54.438Z,5.80
2023-04-19T20:58:22.963Z,5.95
2023-04-19T21:00:52.148Z,6.05
2023-04-19T21:03:21.460Z,6.07
2023-04-19T21:05:50.144Z,5.50
2023-04-19T21:08:19.803Z,6.03
2023-04-19T21:10:51.506Z,6.07
2023-04-19T21:13:20.718Z,5.80
2023-04-19T21:15:50.589Z,6.13
2023-04-19T21:18:21.004Z,6.13
2023-04-19T21:20:51.159Z,6.15
2023-04-19T21:23:20.443Z,6.40
2023-04-19T21:25:52.134Z,6.78
2023-04-19T21:28:23.076Z,6.72
2023-04-19T21:30:53.534Z,6.63
2023-04-19T21:33:23.284Z,7.22
2023-04-19T21:35:53.936Z,6.38
2023-04-19T21:38:24.240Z,6.82
2023-04-19T21:40:57.219Z,6.80
2023-04-19T21:43:26.230Z,6.53
2023-04-19T21:45:56.599Z,6.03
2023-04-19T21:48:26.747Z,6.95
2023-04-19T21:50:55.708Z,6.57
2023-04-19T21:53:25.236Z,6.45
2023-04-19T21:55:55.378Z,5.75
2023-04-19T21:58:23.925Z,5.63
2023-04-19T22:00:53.809Z,6.10
2023-04-19T22:03:23.003Z,6.60
2023-04-19T22:05:51.904Z,6.40
2023-04-19T22:08:22.252Z,6.43
2023-04-19T22:10:51.157Z,6.45
2023-04-19T22:13:22.219Z,6.22
2023-04-19T22:15:50.790Z,5.75
2023-04-19T22:18:19.251Z,4.93
2023-04-19T22:20:50.035Z,5.18
2023-04-19T22:23:18.644Z,5.70
2023-04-19T22:25:47.869Z,5.13
2023-04-19T22:28:16.640Z,5.75
2023-04-19T22:30:47.234Z,5.38
2023-04-19T22:33:16.423Z,5.63
2023-04-19T22:35:46.296Z,5.20
2023-04-19T22:38:14.751Z,5.13
2023-04-19T22:40:43.740Z,5.70
2023-04-19T22:43:12.742Z,4.63
2023-04-19T22:45:41.366Z,4.57
2023-04-19T22:48:12.621Z,4.90
2023-04-19T22:50:42.149Z,5.23
2023-04-19T22:53:12.824Z,5.15
2023-04-19T22:55:41.722Z,5.35
2023-04-19T22:58:12.681Z,5.25
2023-04-19T23:00:41.958Z,4.97
2023-04-19T23:03:12.314Z,4.35
2023-04-19T23:08:13.060Z,5.45
2023-04-19T23:10:42.583Z,5.40
2023-04-19T23:13:11.997Z,5.55
2023-04-19T23:15:40.730Z,5.40
2023-04-19T23:18:09.881Z,5.50
2023-04-19T23:20:40.105Z,6.07
2023-04-19T23:23:09.532Z,5.80
2023-04-19T23:25:38.241Z,5.78
2023-04-19T23:28:08.867Z,5.75
2023-04-19T23:30:38.904Z,4.85
2023-04-19T23:33:07.589Z,5.45
2023-04-19T23:35:36.495Z,5.85
2023-04-19T23:38:08.452Z,6.00
2023-04-19T23:40:37.843Z,5.90
2023-04-19T23:43:06.865Z,6.20
2023-04-19T23:45:35.982Z,5.40
2023-04-19T23:48:05.819Z,5.95
2023-04-19T23:50:34.477Z,6.70
2023-04-19T23:53:04.600Z,6.07
2023-04-19T23:55:34.433Z,6.57
2023-04-19T23:58:03.469Z,6.00
